Time;durP1;ratioP1;P1;durP2;ratioP2;P2;SDS_P1;SDS_P2;PMS_P1;PMS_P2;Temp;Humidity;BMP_temperature;BMP_pressure;BME280_temperature;BME280_humidity;BME280_pressure;Samples;Min_cycle;Max_cycle;Signal;HPM_P1;HPM_P2
2022/11/22 00:00:06;;;;;;;17.97;7.43;;;4.40;99.90;;;;;;5034623;28;20507;-67
2022/11/22 00:02:33;;;;;;;19.52;8.27;;;4.40;99.90;;;;;;5041936;28;20045;-68
2022/11/22 00:04:59;;;;;;;18.17;7.50;;;4.50;99.90;;;;;;5030899;28;20041;-67
2022/11/22 00:07:25;;;;;;;13.37;6.53;;;4.40;99.90;;;;;;5033118;28;20048;-68
2022/11/22 00:09:50;;;;;;;18.73;7.60;;;4.40;99.90;;;;;;5034255;28;20132;-67
2022/11/22 00:12:16;;;;;;;15.80;6.63;;;4.40;99.90;;;;;;5034332;28;20041;-67
2022/11/22 00:14:42;;;;;;;15.82;6.90;;;4.40;99.90;;;;;;5033985;28;20036;-68
2022/11/22 00:17:07;;;;;;;15.23;6.90;;;4.50;99.90;;;;;;5035169;28;20458;-67
2022/11/22 00:19:34;;;;;;;19.03;7.00;;;4.50;99.90;;;;;;5033360;28;20056;-67
2022/11/22 00:22:00;;;;;;;16.05;6.80;;;4.50;99.90;;;;;;5032572;28;20057;-68
2022/11/22 00:24:26;;;;;;;17.67;6.97;;;4.40;99.90;;;;;;5032257;28;20048;-68
2022/11/22 00:26:54;;;;;;;19.47;7.70;;;4.40;99.90;;;;;;5036647;28;20121;-68
2022/11/22 00:29:19;;;;;;;16.58;6.45;;;4.50;99.90;;;;;;5038632;28;20450;-67
2022/11/22 00:31:45;;;;;;;13.53;6.27;;;4.50;99.90;;;;;;5040237;28;20075;-67
2022/11/22 00:34:10;;;;;;;15.40;7.03;;;4.40;99.90;;;;;;5033810;28;20454;-66
2022/11/22 00:36:38;;;;;;;14.10;6.27;;;4.50;99.90;;;;;;5034003;28;20037;-67
2022/11/22 00:39:04;;;;;;;13.25;6.55;;;4.40;99.90;;;;;;5038149;28;20116;-67
2022/11/22 00:41:29;;;;;;;20.53;6.33;;;4.50;99.90;;;;;;5039746;28;20079;-66
2022/11/22 00:43:55;;;;;;;14.20;6.70;;;4.50;99.90;;;;;;5038246;28;20064;-66
2022/11/22 00:46:20;;;;;;;15.47;6.30;;;4.50;99.90;;;;;;5029701;28;20053;-66
2022/11/22 00:48:51;;;;;;;17.07;6.53;;;4.50;99.90;;;;;;5032405;28;20379;-67
2022/11/22 00:51:17;;;;;;;15.80;6.25;;;4.40;99.90;;;;;;5037486;28;20036;-67
2022/11/22 00:53:42;;;;;;;14.17;6.17;;;4.50;99.90;;;;;;5042473;28;20530;-66
2022/11/22 00:56:08;;;;;;;14.23;5.97;;;4.40;99.90;;;;;;5034830;28;20084;-67
2022/11/22 00:58:34;;;;;;;14.20;6.47;;;4.40;99.90;;;;;;5032999;28;20087;-66
2022/11/22 01:01:02;;;;;;;13.90;6.80;;;4.50;99.90;;;;;;5037283;28;20037;-67
2022/11/22 01:03:30;;;;;;;13.93;5.83;;;4.50;99.90;;;;;;5033938;28;20119;-66
2022/11/22 01:05:55;;;;;;;13.57;6.00;;;4.50;99.90;;;;;;5039470;28;20382;-67
2022/11/22 01:08:21;;;;;;;17.90;6.63;;;4.50;99.90;;;;;;5037072;28;20129;-67
2022/11/22 01:10:47;;;;;;;16.83;6.78;;;4.40;99.90;;;;;;5035693;28;20040;-67
2022/11/22 01:13:13;;;;;;;13.47;6.23;;;4.50;99.90;;;;;;5029283;28;20042;-66
2022/11/22 01:15:38;;;;;;;17.43;6.43;;;4.40;99.90;;;;;;5035796;28;20036;-67
2022/11/22 01:18:04;;;;;;;13.67;5.97;;;4.50;99.90;;;;;;5034430;28;20128;-67
2022/11/22 01:20:30;;;;;;;12.02;6.30;;;4.50;99.90;;;;;;5038464;28;20089;-67
2022/11/22 01:22:57;;;;;;;13.00;6.30;;;4.50;99.90;;;;;;5040073;28;20296;-67
2022/11/22 01:25:25;;;;;;;14.35;6.28;;;4.50;99.90;;;;;;5039193;28;20146;-67
2022/11/22 01:27:53;;;;;;;11.63;5.93;;;4.40;99.90;;;;;;5037828;28;20124;-67
2022/11/22 01:30:18;;;;;;;16.50;6.43;;;4.50;99.90;;;;;;5033623;28;20068;-67
2022/11/22 01:32:44;;;;;;;15.93;5.83;;;4.50;99.90;;;;;;5031735;28;20080;-67
2022/11/22 01:35:09;;;;;;;11.27;5.43;;;4.50;99.90;;;;;;5034967;28;20128;-67
2022/11/22 01:37:35;;;;;;;9.40;5.33;;;4.50;99.90;;;;;;5035343;28;20047;-67
2022/11/22 01:40:01;;;;;;;13.13;6.00;;;4.40;99.90;;;;;;5029524;28;20411;-67
2022/11/22 01:42:49;;;;;;;11.87;5.43;;;4.50;99.90;;;;;;5033664;28;20041;-66
2022/11/22 01:45:29;;;;;;;14.05;6.00;;;4.50;99.90;;;;;;5031859;28;20396;-67
2022/11/22 01:47:59;;;;;;;17.17;6.43;;;4.50;99.90;;;;;;5019992;28;20067;-67
2022/11/22 01:50:26;;;;;;;12.75;5.93;;;4.40;99.90;;;;;;5018967;28;20044;-66
2022/11/22 01:52:53;;;;;;;12.65;5.85;;;4.50;99.90;;;;;;5036301;28;20041;-66
2022/11/22 01:55:21;;;;;;;14.77;6.70;;;4.40;99.90;;;;;;5031289;28;20291;-67
2022/11/22 01:57:47;;;;;;;16.58;6.22;;;4.40;99.90;;;;;;5033105;28;20033;-67
2022/11/22 02:00:15;;;;;;;17.05;6.28;;;4.40;99.90;;;;;;5038652;28;20506;-67
2022/11/22 02:02:44;;;;;;;12.95;6.55;;;4.40;99.90;;;;;;5028387;28;20037;-67
2022/11/22 02:05:13;;;;;;;20.35;7.47;;;4.40;99.90;;;;;;5035275;28;20038;-66
2022/11/22 02:08:00;;;;;;;15.20;6.65;;;4.40;99.90;;;;;;5042016;28;20037;-67
2022/11/22 02:10:28;;;;;;;17.08;6.63;;;4.40;99.90;;;;;;5030981;28;20049;-67
2022/11/22 02:12:57;;;;;;;14.50;6.05;;;4.40;99.90;;;;;;5032642;28;20452;-67
2022/11/22 02:15:23;;;;;;;17.27;7.60;;;4.40;99.90;;;;;;5036337;28;20044;-67
2022/11/22 02:17:49;;;;;;;16.27;7.80;;;4.40;99.90;;;;;;5037465;28;20033;-67
2022/11/22 02:20:16;;;;;;;14.87;6.93;;;4.40;99.90;;;;;;5043823;28;20313;-67
2022/11/22 02:23:18;;;;;;;14.30;6.50;;;4.40;99.90;;;;;;5037865;28;20123;-67
2022/11/22 02:25:57;;;;;;;14.88;7.05;;;4.40;99.90;;;;;;5043563;28;20081;-66
2022/11/22 02:28:25;;;;;;;13.73;6.60;;;4.40;99.90;;;;;;5041455;28;20052;-67
2022/11/22 02:30:51;;;;;;;11.38;6.32;;;4.40;99.90;;;;;;5037250;28;20037;-67
2022/11/22 02:33:19;;;;;;;13.30;6.65;;;4.40;99.90;;;;;;5032898;28;20048;-67
2022/11/22 02:35:45;;;;;;;14.03;7.03;;;4.40;99.90;;;;;;5031212;28;20041;-67
2022/11/22 02:38:23;;;;;;;14.20;7.07;;;4.40;99.90;;;;;;5043914;28;20125;-68
2022/11/22 02:40:54;;;;;;;14.07;7.10;;;4.40;99.90;;;;;;5032154;28;20217;-68
2022/11/22 02:43:28;;;;;;;14.98;7.68;;;4.40;99.90;;;;;;5036446;28;20033;-67
2022/11/22 02:45:54;;;;;;;12.57;6.60;;;4.40;99.90;;;;;;5034432;28;20572;-67
2022/11/22 02:48:20;;;;;;;13.87;6.57;;;4.40;99.90;;;;;;5036782;28;20375;-67
2022/11/22 02:50:46;;;;;;;13.87;6.80;;;4.40;99.90;;;;;;5039373;28;20145;-67
2022/11/22 02:53:12;;;;;;;13.27;6.75;;;4.40;99.90;;;;;;5043251;28;20266;-67
2022/11/22 02:55:39;;;;;;;17.35;6.75;;;4.40;99.90;;;;;;5035621;28;20304;-67
2022/11/22 02:58:05;;;;;;;16.38;6.70;;;4.40;99.90;;;;;;5034178;28;20120;-67
2022/11/22 03:00:32;;;;;;;16.35;7.18;;;4.40;99.90;;;;;;5034244;28;20564;-67
2022/11/22 03:02:58;;;;;;;15.75;7.55;;;4.40;99.90;;;;;;5034839;28;20059;-67
2022/11/22 03:05:23;;;;;;;12.73;6.37;;;4.40;99.90;;;;;;5036262;28;20045;-66
2022/11/22 03:07:52;;;;;;;19.10;7.27;;;4.50;99.90;;;;;;5037263;28;20052;-68
2022/11/22 03:10:18;;;;;;;14.52;7.43;;;4.50;99.90;;;;;;5030951;28;20112;-67
2022/11/22 03:12:43;;;;;;;13.37;6.43;;;4.40;99.90;;;;;;5035498;28;20538;-67
2022/11/22 03:15:09;;;;;;;12.97;6.83;;;4.50;99.90;;;;;;5031366;28;20045;-71
2022/11/22 03:17:35;;;;;;;12.83;7.00;;;4.50;99.90;;;;;;5040075;28;20467;-67
2022/11/22 03:20:04;;;;;;;13.15;6.63;;;4.50;99.90;;;;;;5039809;28;20285;-67
2022/11/22 03:22:35;;;;;;;14.77;6.70;;;4.50;99.90;;;;;;5040724;28;20051;-67
2022/11/22 03:25:00;;;;;;;13.95;6.28;;;4.60;99.90;;;;;;5038922;28;20517;-69
2022/11/22 03:27:26;;;;;;;15.43;7.20;;;4.50;99.90;;;;;;5034329;28;20088;-67
2022/11/22 03:29:51;;;;;;;17.47;7.07;;;4.60;99.90;;;;;;5035545;28;20064;-67
2022/11/22 03:32:17;;;;;;;13.87;6.97;;;4.60;99.90;;;;;;5032747;28;20037;-68
2022/11/22 03:34:43;;;;;;;15.70;7.20;;;4.60;99.90;;;;;;5038074;28;20080;-68
2022/11/22 03:37:08;;;;;;;13.43;6.47;;;4.60;99.90;;;;;;5036627;28;20049;-68
2022/11/22 03:39:34;;;;;;;14.97;6.97;;;4.60;99.90;;;;;;5033416;28;20426;-68
2022/11/22 03:41:59;;;;;;;15.37;6.80;;;4.60;99.90;;;;;;5038614;28;20139;-68
2022/11/22 03:44:25;;;;;;;17.53;6.10;;;4.60;99.90;;;;;;5036270;28;20402;-68
2022/11/22 03:46:51;;;;;;;13.73;6.47;;;4.60;99.90;;;;;;5032553;28;20045;-68
2022/11/22 03:49:16;;;;;;;15.73;7.13;;;4.60;99.90;;;;;;5037000;28;20503;-69
2022/11/22 03:51:42;;;;;;;13.27;6.70;;;4.60;99.90;;;;;;5032626;28;20037;-68
2022/11/22 03:54:08;;;;;;;14.83;6.97;;;4.60;99.90;;;;;;5016802;28;20045;-67
2022/11/22 03:56:33;;;;;;;17.47;6.83;;;4.60;99.90;;;;;;5024971;28;20050;-68
2022/11/22 03:58:59;;;;;;;13.50;6.80;;;4.60;99.90;;;;;;5016233;28;20037;-68
2022/11/22 04:01:27;;;;;;;16.07;6.83;;;4.60;99.90;;;;;;5033124;28;20461;-68
2022/11/22 04:03:55;;;;;;;11.07;6.47;;;4.60;99.90;;;;;;5023306;28;20482;-68
2022/11/22 04:06:20;;;;;;;16.90;7.13;;;4.70;99.90;;;;;;5039644;28;20039;-68
2022/11/22 04:08:46;;;;;;;13.77;6.70;;;4.60;99.90;;;;;;5033653;28;20562;-68
2022/11/22 04:11:11;;;;;;;15.17;6.77;;;4.70;99.90;;;;;;5037449;28;20124;-68
2022/11/22 04:16:21;;;;;;;15.52;7.05;;;4.70;99.90;;;;;;5040255;28;20502;-70
2022/11/22 04:18:47;;;;;;;12.90;8.03;;;4.70;99.90;;;;;;5030289;28;20044;-67
2022/11/22 04:26:41;;;;;;;13.30;7.30;;;4.70;99.90;;;;;;5024459;22;20134;-71
2022/11/22 04:29:06;;;;;;;15.90;7.43;;;4.80;99.90;;;;;;4983629;28;20558;-71
2022/11/22 04:34:16;;;;;;;14.88;6.47;;;4.80;99.90;;;;;;4977250;28;20429;-71
2022/11/22 04:36:41;;;;;;;14.90;6.63;;;4.80;99.90;;;;;;4977893;28;20061;-71
2022/11/22 04:39:07;;;;;;;14.03;7.03;;;4.80;99.90;;;;;;4983599;28;20066;-71
2022/11/22 04:41:33;;;;;;;12.33;6.33;;;4.80;99.90;;;;;;4976578;28;20068;-71
2022/11/22 04:46:42;;;;;;;15.70;7.22;;;4.90;99.90;;;;;;4980781;28;20073;-71
2022/11/22 04:49:08;;;;;;;12.97;7.00;;;4.90;99.90;;;;;;4986444;28;20077;-71
2022/11/22 04:54:18;;;;;;;17.50;6.78;;;4.90;99.90;;;;;;4975100;28;20034;-71
2022/11/22 04:56:43;;;;;;;12.13;6.53;;;4.90;99.90;;;;;;4980648;28;20081;-71
2022/11/22 04:59:09;;;;;;;14.23;6.93;;;4.90;99.90;;;;;;4979485;28;20053;-71
2022/11/22 05:01:34;;;;;;;14.50;6.80;;;4.90;99.90;;;;;;4978218;28;20042;-71
2022/11/22 05:04:00;;;;;;;15.70;6.97;;;4.90;99.90;;;;;;4974448;28;20412;-71
2022/11/22 05:06:26;;;;;;;14.47;7.03;;;5.00;99.90;;;;;;4975606;28;20039;-72
2022/11/22 05:08:51;;;;;;;15.00;6.30;;;5.00;99.90;;;;;;4980911;28;20480;-71
2022/11/22 05:11:17;;;;;;;13.83;7.00;;;5.00;99.90;;;;;;4985299;28;20035;-71
2022/11/22 05:13:43;;;;;;;12.00;6.97;;;5.00;99.90;;;;;;4975329;28;20058;-71
2022/11/22 05:16:11;;;;;;;15.15;6.88;;;5.00;99.90;;;;;;4980704;28;20039;-71
2022/11/22 05:18:37;;;;;;;14.60;6.97;;;5.10;99.90;;;;;;4971585;28;20097;-71
2022/11/22 05:21:11;;;;;;;16.15;7.18;;;5.00;99.90;;;;;;4976483;28;20045;-71
2022/11/22 05:23:55;;;;;;;14.93;7.18;;;5.00;99.90;;;;;;4975934;28;20382;-71
2022/11/22 05:26:29;;;;;;;13.00;7.10;;;5.00;99.90;;;;;;4975842;28;20039;-71
2022/11/22 05:28:57;;;;;;;16.70;6.28;;;5.10;99.90;;;;;;4969432;28;20121;-71
2022/11/22 05:31:26;;;;;;;15.23;6.57;;;5.10;99.90;;;;;;4980119;28;20038;-71
2022/11/22 05:33:53;;;;;;;12.52;7.28;;;5.10;99.90;;;;;;4991828;28;20125;-71
2022/11/22 05:36:20;;;;;;;14.35;6.78;;;5.10;99.90;;;;;;4983306;28;20084;-71
2022/11/22 05:38:46;;;;;;;14.88;7.00;;;5.10;99.90;;;;;;4973972;28;20042;-71
2022/11/22 05:41:13;;;;;;;12.27;6.73;;;5.10;99.90;;;;;;4980601;28;20061;-71
2022/11/22 05:43:39;;;;;;;12.63;6.43;;;5.20;99.90;;;;;;4972263;28;20303;-71
2022/11/22 05:46:14;;;;;;;17.90;6.88;;;5.10;99.90;;;;;;4974986;28;20074;-71
2022/11/22 05:48:42;;;;;;;14.02;6.30;;;5.10;99.90;;;;;;4980115;28;20383;-71
2022/11/22 05:51:12;;;;;;;12.60;5.75;;;5.20;99.90;;;;;;4981271;28;20037;-71
2022/11/22 05:53:39;;;;;;;13.50;6.57;;;5.20;99.90;;;;;;4982286;28;20042;-71
2022/11/22 05:56:12;;;;;;;13.15;5.78;;;5.20;99.90;;;;;;4976874;28;20129;-71
2022/11/22 05:58:38;;;;;;;15.00;6.32;;;5.20;99.90;;;;;;4983459;28;20058;-71
2022/11/22 06:01:06;;;;;;;13.50;6.43;;;5.20;99.90;;;;;;4981378;28;20048;-71
2022/11/22 06:03:32;;;;;;;15.48;7.43;;;5.20;99.90;;;;;;4973754;28;20416;-71
2022/11/22 06:05:58;;;;;;;13.15;6.20;;;5.30;99.90;;;;;;4971584;28;20038;-71
2022/11/22 06:08:23;;;;;;;11.90;5.90;;;5.30;99.90;;;;;;4978342;28;20097;-71
2022/11/22 06:10:49;;;;;;;13.33;5.80;;;5.30;99.90;;;;;;4985735;28;20707;-71
2022/11/22 06:13:15;;;;;;;12.23;6.57;;;5.30;99.90;;;;;;4977280;28;20433;-71
2022/11/22 06:15:40;;;;;;;11.07;5.70;;;5.30;99.90;;;;;;4986815;28;20169;-71
2022/11/22 06:18:06;;;;;;;13.77;6.50;;;5.30;99.90;;;;;;4984571;28;20368;-72
2022/11/22 06:20:31;;;;;;;13.20;6.53;;;5.40;99.90;;;;;;4981527;28;20154;-72
2022/11/22 06:22:58;;;;;;;19.30;6.80;;;5.30;99.90;;;;;;4981784;28;20097;-71
2022/11/22 06:25:24;;;;;;;17.08;6.60;;;5.30;99.90;;;;;;4985127;28;20039;-71
2022/11/22 06:27:49;;;;;;;10.77;6.00;;;5.40;99.90;;;;;;4978493;28;20480;-71
2022/11/22 06:30:15;;;;;;;12.87;6.27;;;5.40;99.90;;;;;;4982566;28;20042;-71
2022/11/22 06:32:41;;;;;;;13.50;6.00;;;5.30;99.90;;;;;;4979358;28;20042;-71
2022/11/22 06:35:07;;;;;;;9.13;5.63;;;5.30;99.90;;;;;;4976161;28;20586;-71
2022/11/22 06:37:32;;;;;;;13.20;5.30;;;5.30;99.90;;;;;;4979735;28;20397;-71
2022/11/22 06:39:58;;;;;;;10.20;5.10;;;5.40;99.90;;;;;;4978516;28;20039;-71
2022/11/22 06:42:24;;;;;;;10.60;5.07;;;5.40;99.90;;;;;;4967256;28;20130;-72
2022/11/22 06:44:50;;;;;;;13.57;4.77;;;5.40;99.90;;;;;;4981772;28;20165;-71
2022/11/22 06:47:16;;;;;;;9.00;4.07;;;5.40;99.90;;;;;;4981197;28;20049;-72
2022/11/22 06:49:43;;;;;;;14.65;5.63;;;5.40;99.90;;;;;;4981543;28;20069;-72
2022/11/22 06:52:08;;;;;;;12.30;4.72;;;5.40;99.90;;;;;;4980959;28;20042;-73
2022/11/22 06:54:34;;;;;;;11.53;4.27;;;5.40;99.90;;;;;;4982835;28;20352;-76
2022/11/22 06:57:00;;;;;;;8.57;4.10;;;5.40;99.90;;;;;;4976577;28;20103;-75
2022/11/22 06:59:25;;;;;;;13.53;4.90;;;5.40;99.90;;;;;;4975660;28;20084;-75
2022/11/22 07:01:51;;;;;;;12.70;4.90;;;5.50;99.90;;;;;;4975376;28;20066;-71
2022/11/22 07:04:16;;;;;;;13.30;4.20;;;5.50;99.90;;;;;;4983740;28;20491;-75
2022/11/22 07:06:43;;;;;;;8.90;4.17;;;5.50;99.90;;;;;;4988769;28;20049;-78
2022/11/22 07:09:11;;;;;;;12.52;4.45;;;5.40;99.90;;;;;;4984824;28;20038;-75
2022/11/22 07:11:38;;;;;;;14.30;4.60;;;5.40;99.90;;;;;;4980580;28;20409;-75
2022/11/22 07:14:04;;;;;;;12.52;4.35;;;5.40;99.90;;;;;;4986031;28;20120;-70
2022/11/22 07:16:30;;;;;;;14.50;4.75;;;5.40;99.90;;;;;;4990240;28;20046;-75
2022/11/22 07:18:59;;;;;;;7.72;4.18;;;5.40;99.90;;;;;;4983691;28;20064;-73
2022/11/22 07:21:25;;;;;;;17.55;4.43;;;5.40;99.90;;;;;;4981259;28;20046;-71
2022/11/22 07:23:53;;;;;;;10.60;4.05;;;5.40;99.90;;;;;;4979610;28;20124;-73
2022/11/22 07:26:20;;;;;;;10.02;3.47;;;5.40;99.90;;;;;;4978987;28;20082;-71
2022/11/22 07:28:46;;;;;;;10.35;3.92;;;5.40;99.90;;;;;;4975801;28;20046;-72
2022/11/22 07:31:14;;;;;;;10.32;3.45;;;5.40;99.90;;;;;;4984887;28;20050;-80
2022/11/22 07:33:39;;;;;;;9.55;4.40;;;5.30;99.90;;;;;;4985011;28;20060;-73
2022/11/22 07:36:11;;;;;;;9.23;3.87;;;5.30;99.90;;;;;;4986739;28;20034;-74
2022/11/22 07:38:37;;;;;;;15.05;3.83;;;5.30;99.90;;;;;;4981180;28;20062;-80
2022/11/22 07:41:03;;;;;;;10.07;5.07;;;5.30;99.90;;;;;;4989196;28;20042;-77
2022/11/22 07:43:29;;;;;;;;;;;5.30;99.90;;;;;;4965963;28;20125;-80
2022/11/22 07:45:59;;;;;;;9.93;3.22;;;5.30;99.90;;;;;;4981478;28;19961;-79
2022/11/22 07:48:25;;;;;;;8.10;3.50;;;5.30;99.90;;;;;;5004695;28;20080;-79
2022/11/22 07:50:50;;;;;;;10.53;3.67;;;5.30;99.90;;;;;;4977665;28;20049;-70
2022/11/22 07:53:16;;;;;;;6.57;3.07;;;5.20;99.90;;;;;;4987880;28;20472;-70
2022/11/22 07:55:41;;;;;;;12.10;3.23;;;5.30;99.90;;;;;;4982714;28;20306;-70
2022/11/22 07:58:07;;;;;;;9.07;3.13;;;5.20;99.90;;;;;;4980384;28;20077;-71
2022/11/22 08:00:33;;;;;;;8.30;2.87;;;5.20;99.90;;;;;;4978444;28;20177;-70
2022/11/22 08:02:58;;;;;;;8.87;3.20;;;5.20;99.90;;;;;;4987514;28;20034;-70
2022/11/22 08:05:24;;;;;;;11.87;2.53;;;5.20;99.90;;;;;;4981670;28;20046;-70
2022/11/22 08:07:51;;;;;;;6.22;2.28;;;5.20;99.90;;;;;;4987166;28;20042;-70
2022/11/22 08:10:17;;;;;;;9.25;2.55;;;5.20;99.90;;;;;;4980937;28;20263;-70
2022/11/22 08:12:43;;;;;;;5.03;2.00;;;5.20;99.90;;;;;;4985682;28;20839;-70
2022/11/22 08:15:10;;;;;;;8.35;2.65;;;5.20;99.90;;;;;;4975589;28;20185;-69
2022/11/22 08:17:37;;;;;;;9.20;2.40;;;5.20;99.90;;;;;;4985654;28;20034;-80
2022/11/22 08:20:04;;;;;;;7.85;2.08;;;5.20;99.90;;;;;;4984130;28;20053;-69
2022/11/22 08:22:29;;;;;;;10.73;2.85;;;5.30;99.90;;;;;;4981641;28;20046;-70
2022/11/22 08:24:55;;;;;;;6.90;2.43;;;5.30;99.90;;;;;;4983965;28;20039;-72
2022/11/22 08:27:21;;;;;;;9.23;2.23;;;5.30;99.90;;;;;;4975262;28;20165;-71
2022/11/22 08:29:46;;;;;;;12.93;2.43;;;5.30;99.90;;;;;;4976636;28;20050;-71
2022/11/22 08:32:12;;;;;;;6.03;1.80;;;5.30;99.90;;;;;;4981431;28;20034;-71
2022/11/22 08:34:37;;;;;;;5.37;1.83;;;5.40;99.90;;;;;;4978991;28;20042;-72
2022/11/22 08:37:03;;;;;;;14.00;2.13;;;5.40;99.90;;;;;;4980512;28;20161;-71
2022/11/22 08:39:29;;;;;;;6.80;2.43;;;5.40;99.90;;;;;;4977306;28;20046;-71
2022/11/22 08:41:55;;;;;;;4.03;2.00;;;5.40;99.90;;;;;;4981248;28;20083;-71
2022/11/22 08:44:20;;;;;;;8.67;2.27;;;5.40;99.90;;;;;;4985386;28;20491;-70
2022/11/22 08:46:46;;;;;;;7.60;1.90;;;5.40;99.90;;;;;;4984035;28;20049;-71
2022/11/22 08:49:12;;;;;;;6.30;2.17;;;5.40;99.90;;;;;;4977190;28;20051;-71
2022/11/22 08:51:43;;;;;;;10.53;2.40;;;5.40;99.90;;;;;;4995137;28;20343;-70
2022/11/22 08:54:13;;;;;;;8.60;2.05;;;5.50;99.90;;;;;;4989094;28;20049;-70
2022/11/22 08:56:38;;;;;;;6.00;2.25;;;5.50;99.90;;;;;;4980136;28;20053;-70
2022/11/22 08:59:04;;;;;;;10.50;2.50;;;5.40;99.90;;;;;;4982982;28;20388;-70
2022/11/22 09:01:30;;;;;;;10.17;2.43;;;5.40;99.90;;;;;;4996320;28;20061;-69
2022/11/22 09:03:55;;;;;;;10.43;2.03;;;5.40;99.90;;;;;;4999705;28;20610;-70
2022/11/22 09:06:21;;;;;;;5.43;2.10;;;5.40;99.90;;;;;;4984292;28;20048;-70
2022/11/22 09:08:47;;;;;;;5.83;2.00;;;5.40;99.90;;;;;;4977479;28;20504;-71
2022/11/22 09:11:16;;;;;;;7.80;1.77;;;5.50;99.90;;;;;;4982292;28;20121;-71
2022/11/22 09:13:41;;;;;;;4.13;1.85;;;5.40;99.90;;;;;;4979968;28;20113;-71
2022/11/22 09:16:12;;;;;;;5.63;2.03;;;5.50;99.90;;;;;;4982733;28;20046;-71
2022/11/22 09:18:39;;;;;;;7.18;2.05;;;5.40;99.90;;;;;;4974543;28;20051;-71
2022/11/22 09:21:09;;;;;;;8.07;1.90;;;5.40;99.90;;;;;;4980783;28;20042;-71
2022/11/22 09:23:36;;;;;;;5.13;1.90;;;5.50;99.90;;;;;;4979655;28;20064;-72
2022/11/22 09:26:06;;;;;;;9.82;2.10;;;5.40;99.90;;;;;;4979666;28;20483;-71
2022/11/22 09:28:33;;;;;;;6.63;2.05;;;5.50;99.90;;;;;;4981477;28;20370;-71
2022/11/22 09:31:09;;;;;;;;;;;5.50;99.90;;;;;;4993635;28;20106;-72
2022/11/22 09:33:37;;;;;;;5.03;2.25;;;5.50;99.90;;;;;;4971575;28;19946;-72
2022/11/22 09:36:07;;;;;;;3.40;1.67;;;5.50;99.90;;;;;;4978061;28;20042;-71
2022/11/22 09:38:33;;;;;;;8.15;2.40;;;5.50;99.90;;;;;;4983443;28;20437;-72
2022/11/22 09:41:03;;;;;;;7.10;2.00;;;5.50;99.90;;;;;;4978303;28;20039;-71
2022/11/22 09:43:50;;;;;;;8.98;2.38;;;5.60;99.90;;;;;;4981138;28;20116;-71
2022/11/22 09:46:33;;;;;;;12.52;3.45;;;5.50;99.90;;;;;;4978170;28;20089;-71
2022/11/22 09:49:02;;;;;;;6.57;2.17;;;5.50;99.90;;;;;;4980662;28;20046;-70
2022/11/22 09:51:55;;;;;;;4.20;1.90;;;5.60;99.90;;;;;;4981636;28;20077;-71
2022/11/22 09:54:29;;;;;;;8.02;2.10;;;5.60;99.90;;;;;;4974410;28;20382;-71
2022/11/22 09:57:00;;;;;;;9.70;2.65;;;5.60;99.90;;;;;;4976168;28;20345;-71
2022/11/22 09:59:35;;;;;;;7.38;2.28;;;5.60;99.90;;;;;;4978022;28;20549;-71
2022/11/22 10:02:04;;;;;;;4.72;1.80;;;5.60;99.90;;;;;;4972290;28;20085;-71
2022/11/22 10:05:00;;;;;;;6.35;2.03;;;5.60;99.90;;;;;;4976143;28;20399;-71
2022/11/22 10:07:36;;;;;;;5.60;2.22;;;5.70;99.90;;;;;;4973152;28;20046;-71
2022/11/22 10:10:13;;;;;;;4.72;2.03;;;5.60;99.90;;;;;;4976529;28;20573;-71
2022/11/22 10:13:15;;;;;;;6.50;1.58;;;5.70;99.90;;;;;;4977688;28;20137;-71
2022/11/22 10:15:59;;;;;;;11.95;2.50;;;5.70;99.90;;;;;;4995939;28;20043;-71
2022/11/22 10:18:52;;;;;;;5.82;1.58;;;5.70;99.90;;;;;;4979752;28;20049;-71
2022/11/22 10:21:18;;;;;;;6.53;1.90;;;5.80;99.90;;;;;;4977251;28;20068;-71
2022/11/22 10:23:45;;;;;;;4.38;1.55;;;5.80;99.90;;;;;;4978852;28;20407;-71
2022/11/22 10:26:27;;;;;;;10.18;2.15;;;5.80;99.90;;;;;;4997777;23;20121;-69
2022/11/22 10:29:08;;;;;;;4.45;2.22;;;5.80;99.90;;;;;;4989452;28;20053;-70
2022/11/22 10:31:42;;;;;;;7.57;2.70;;;5.80;99.90;;;;;;4962163;28;20097;-70
2022/11/22 10:34:42;;;;;;;7.90;2.22;;;5.90;99.90;;;;;;4979148;28;20038;-69
2022/11/22 10:37:22;;;;;;;4.70;1.90;;;5.90;99.90;;;;;;4965362;28;20069;-69
2022/11/22 10:40:21;;;;;;;5.18;2.08;;;5.90;99.90;;;;;;4968517;28;20058;-70
2022/11/22 10:42:55;;;;;;;8.07;2.10;;;5.90;99.90;;;;;;4961786;28;20042;-70
2022/11/22 10:45:32;;;;;;;5.13;1.98;;;5.90;99.90;;;;;;4967380;28;20047;-69
2022/11/22 10:48:15;;;;;;;7.38;2.03;;;6.00;99.90;;;;;;4971015;28;20043;-69
2022/11/22 10:51:04;;;;;;;8.15;2.30;;;6.00;99.90;;;;;;4956256;28;20453;-69
2022/11/22 10:53:51;;;;;;;9.70;1.75;;;6.00;99.90;;;;;;4974375;28;20492;-69
2022/11/22 10:56:48;;;;;;;5.55;1.88;;;6.00;99.90;;;;;;4951721;28;20101;-70
2022/11/22 10:59:20;;;;;;;6.07;1.98;;;6.00;99.90;;;;;;4951752;28;20516;-70
2022/11/22 11:01:58;;;;;;;3.28;1.75;;;6.10;99.90;;;;;;4972532;28;20038;-70
2022/11/22 11:04:28;;;;;;;4.68;1.80;;;6.10;99.90;;;;;;4965952;28;20093;-70
2022/11/22 11:06:58;;;;;;;4.97;1.80;;;6.10;99.90;;;;;;4952352;28;20159;-69
2022/11/22 11:09:32;;;;;;;3.40;1.73;;;6.10;99.90;;;;;;4968152;28;20050;-69
2022/11/22 11:11:58;;;;;;;4.63;1.35;;;6.10;99.90;;;;;;4970150;28;20041;-69
2022/11/22 11:14:33;;;;;;;7.03;2.35;;;6.10;99.90;;;;;;4978559;28;20045;-69
2022/11/22 11:16:59;;;;;;;7.40;1.60;;;6.10;99.90;;;;;;4970427;28;20088;-69
2022/11/22 11:19:28;;;;;;;;;;;6.20;99.90;;;;;;4969823;28;20069;-70
2022/11/22 11:21:59;;;;;;;3.90;1.45;;;6.20;99.90;;;;;;4970865;28;19925;-70
2022/11/22 11:24:28;;;;;;;4.97;0.98;;;6.30;99.90;;;;;;4961936;28;20392;-69
2022/11/22 11:26:56;;;;;;;3.58;1.15;;;6.40;99.90;;;;;;4964586;28;20114;-70
2022/11/22 11:29:36;;;;;;;5.50;1.27;;;6.50;99.90;;;;;;4953655;28;20584;-70
2022/11/22 11:32:05;;;;;;;4.32;1.52;;;6.60;99.90;;;;;;4943295;28;20056;-69
2022/11/22 11:34:32;;;;;;;3.42;1.30;;;6.60;99.90;;;;;;4967963;28;20043;-70
2022/11/22 11:36:58;;;;;;;;;;;6.80;99.90;;;;;;4974080;28;20039;-69
2022/11/22 11:39:33;;;;;;;5.30;2.10;;;6.90;99.90;;;;;;4968640;28;19917;-70
2022/11/22 11:41:59;;;;;;;2.58;1.30;;;6.90;99.90;;;;;;4956292;28;20038;-69
2022/11/22 11:44:32;;;;;;;;;;;6.90;99.90;;;;;;4971741;28;20097;-70
2022/11/22 11:46:58;;;;;;;3.42;1.30;;;7.00;99.90;;;;;;4968567;28;19921;-69
2022/11/22 11:49:27;;;;;;;3.92;1.38;;;6.90;99.90;;;;;;4966075;28;20162;-70
2022/11/22 11:51:55;;;;;;;5.30;1.63;;;6.90;99.90;;;;;;4969783;28;20076;-69
2022/11/22 11:54:25;;;;;;;3.10;1.33;;;6.90;99.90;;;;;;4954647;28;20038;-70
2022/11/22 11:56:55;;;;;;;3.97;1.67;;;6.90;99.90;;;;;;4954393;28;20046;-69
2022/11/22 11:59:45;;;;;;;10.93;1.40;;;6.90;99.90;;;;;;4955234;28;20066;-69
2022/11/22 12:02:20;;;;;;;7.15;1.52;;;6.80;99.90;;;;;;4968336;28;20047;-69
2022/11/22 12:04:52;;;;;;;3.08;1.33;;;6.90;99.90;;;;;;4950694;28;20124;-70
2022/11/22 12:07:24;;;;;;;7.35;1.33;;;6.90;99.90;;;;;;4968714;28;20058;-70
2022/11/22 12:09:51;;;;;;;6.97;1.30;;;7.00;99.90;;;;;;4971699;28;20089;-70
2022/11/22 12:12:48;;;;;;;6.28;1.25;;;7.00;99.90;;;;;;4969690;28;20031;-69
2022/11/22 12:15:47;;;;;;;3.95;0.98;;;7.10;99.90;;;;;;4971433;28;20100;-70
2022/11/22 12:18:34;;;;;;;3.47;1.30;;;7.10;99.90;;;;;;4971474;28;20041;-69
2022/11/22 12:21:40;;;;;;;4.00;1.25;;;7.10;99.90;;;;;;4956366;28;20061;-69
2022/11/22 12:24:29;;;;;;;4.82;1.58;;;7.10;99.90;;;;;;4969075;28;20067;-69
2022/11/22 12:26:55;;;;;;;2.17;0.80;;;7.10;99.90;;;;;;4948351;28;20100;-70
2022/11/22 12:29:21;;;;;;;3.40;0.90;;;7.10;99.90;;;;;;4972741;28;20054;-69
2022/11/22 12:31:56;;;;;;;2.67;1.20;;;7.00;99.90;;;;;;4951020;28;20380;-69
2022/11/22 12:34:36;;;;;;;4.43;1.15;;;7.00;99.90;;;;;;4953880;28;20377;-70
2022/11/22 12:37:29;;;;;;;5.53;1.67;;;7.00;99.90;;;;;;4957267;28;20045;-69
2022/11/22 12:40:00;;;;;;;3.58;1.40;;;7.00;99.90;;;;;;4973509;28;20182;-69
2022/11/22 12:42:42;;;;;;;6.18;1.35;;;7.00;99.90;;;;;;4978510;28;20057;-70
2022/11/22 12:45:21;;;;;;;5.47;0.90;;;7.00;99.90;;;;;;4966278;28;20096;-69
2022/11/22 12:47:49;;;;;;;4.20;1.98;;;7.00;99.90;;;;;;4968999;28;20078;-69
2022/11/22 12:50:19;;;;;;;3.75;1.35;;;7.00;99.90;;;;;;4970204;28;20512;-70
2022/11/22 12:53:13;;;;;;;3.28;1.00;;;7.00;99.90;;;;;;4950113;28;20969;-70
2022/11/22 12:55:44;;;;;;;4.00;1.23;;;7.00;99.90;;;;;;4972367;28;20086;-70
2022/11/22 12:58:31;;;;;;;6.22;1.05;;;7.00;99.90;;;;;;4967781;28;20255;-70
2022/11/22 13:01:11;;;;;;;2.20;0.98;;;6.90;99.90;;;;;;4958325;28;20493;-69
2022/11/22 13:04:00;;;;;;;4.50;1.35;;;7.00;99.90;;;;;;4950841;28;20452;-69
2022/11/22 13:06:33;;;;;;;7.05;1.17;;;7.00;99.90;;;;;;4973562;28;20125;-69
2022/11/22 13:09:05;;;;;;;4.55;0.90;;;6.90;99.90;;;;;;4963980;28;20042;-69
2022/11/22 13:11:36;;;;;;;4.88;1.67;;;7.00;99.90;;;;;;4951970;28;20054;-69
2022/11/22 13:14:24;;;;;;;4.88;1.13;;;7.00;99.90;;;;;;4963474;28;20034;-69
2022/11/22 13:16:50;;;;;;;6.88;1.13;;;6.90;99.90;;;;;;4980241;28;20034;-69
2022/11/22 13:19:18;;;;;;;1.85;0.95;;;7.00;99.90;;;;;;4945007;28;20512;-69
2022/11/22 13:21:58;;;;;;;1.73;0.98;;;7.00;99.90;;;;;;4965933;28;20141;-69